Time;durP1;ratioP1;P1;durP2;ratioP2;P2;SDS_P1;SDS_P2;PMS_P1;PMS_P2;Temp;Humidity;BMP_temperature;BMP_pressure;BME280_temperature;BME280_humidity;BME280_pressure;Samples;Min_cycle;Max_cycle;Signal;HPM_P1;HPM_P2
2023/09/15 00:01:13;;;;;;;6.15;2.17;;;13.00;99.90;;;;;;4980089;28;20128;-80
2023/09/15 00:03:39;;;;;;;4.68;1.85;;;13.00;99.90;;;;;;4994067;28;20038;-79
2023/09/15 00:06:05;;;;;;;5.22;1.92;;;12.90;99.90;;;;;;4993564;28;20049;-79
2023/09/15 00:08:30;;;;;;;4.53;2.10;;;12.90;99.90;;;;;;4993356;28;20038;-78
2023/09/15 00:10:56;;;;;;;5.07;1.85;;;12.80;99.90;;;;;;4992873;28;20121;-79
2023/09/15 00:13:22;;;;;;;4.60;2.10;;;12.80;99.90;;;;;;4978572;28;20402;-79
2023/09/15 00:15:51;;;;;;;4.88;2.10;;;12.70;99.90;;;;;;4993618;28;20100;-78
2023/09/15 00:18:18;;;;;;;4.45;2.10;;;12.80;99.90;;;;;;4992909;28;20502;-78
2023/09/15 00:20:44;;;;;;;6.65;2.50;;;12.70;99.90;;;;;;4994987;28;20053;-79
2023/09/15 00:23:10;;;;;;;5.65;2.10;;;12.80;99.90;;;;;;4991639;28;20039;-79
2023/09/15 00:25:36;;;;;;;4.80;2.08;;;12.70;99.90;;;;;;4991086;28;20387;-79
2023/09/15 00:28:03;;;;;;;3.03;1.85;;;12.70;99.90;;;;;;4976858;28;20124;-79
2023/09/15 00:30:29;;;;;;;3.72;2.13;;;12.70;99.90;;;;;;4992711;28;20035;-78
2023/09/15 00:32:56;;;;;;;5.82;2.10;;;12.60;99.90;;;;;;4975643;28;20121;-79
2023/09/15 00:35:23;;;;;;;4.07;1.80;;;12.60;99.90;;;;;;4990929;28;20088;-79
2023/09/15 00:37:50;;;;;;;6.07;2.92;;;12.50;99.90;;;;;;4986172;28;20128;-79
2023/09/15 00:40:21;;;;;;;4.22;2.30;;;12.50;99.90;;;;;;4987939;28;20084;-79
2023/09/15 00:42:48;;;;;;;4.10;2.00;;;12.50;99.90;;;;;;4992269;28;20173;-79
2023/09/15 00:45:15;;;;;;;5.40;2.00;;;12.40;99.90;;;;;;4975661;28;20406;-79
2023/09/15 00:47:43;;;;;;;8.93;2.58;;;12.40;99.90;;;;;;4993025;28;20042;-79
2023/09/15 00:50:13;;;;;;;5.75;2.38;;;12.40;99.90;;;;;;4987788;28;20109;-78
2023/09/15 00:52:40;;;;;;;7.72;2.28;;;12.40;99.90;;;;;;4984883;28;20050;-79
2023/09/15 00:55:08;;;;;;;6.25;2.30;;;12.30;99.90;;;;;;4990351;28;20410;-79
2023/09/15 00:57:37;;;;;;;4.43;2.10;;;12.40;99.90;;;;;;4990423;28;20073;-78
2023/09/15 01:00:03;;;;;;;4.75;2.38;;;12.30;99.90;;;;;;4990579;28;20042;-79
2023/09/15 01:02:29;;;;;;;5.20;2.10;;;12.20;99.90;;;;;;4991811;28;20105;-78
2023/09/15 01:04:56;;;;;;;5.63;2.58;;;12.30;99.90;;;;;;4993392;28;20042;-79
2023/09/15 01:07:21;;;;;;;5.07;2.22;;;12.30;99.90;;;;;;4991685;28;20073;-79
2023/09/15 01:09:47;;;;;;;5.00;2.38;;;12.20;99.90;;;;;;4991200;28;20502;-78
2023/09/15 01:12:12;;;;;;;4.88;2.10;;;12.20;99.90;;;;;;4991740;28;20038;-80
2023/09/15 01:14:38;;;;;;;5.72;2.50;;;12.20;99.90;;;;;;4986122;28;20101;-78
2023/09/15 01:17:15;;;;;;;5.72;2.20;;;12.20;99.90;;;;;;4986959;28;20038;-79
2023/09/15 01:20:09;;;;;;;8.00;2.25;;;12.20;99.90;;;;;;4990984;28;20046;-79
2023/09/15 01:22:56;;;;;;;5.47;2.40;;;12.20;99.90;;;;;;4986278;28;20384;-79
2023/09/15 01:25:40;;;;;;;6.10;2.72;;;12.20;99.90;;;;;;5006050;28;20107;-80
2023/09/15 01:28:41;;;;;;;4.97;2.13;;;12.10;99.90;;;;;;4990240;28;20039;-79
2023/09/15 01:31:09;;;;;;;6.82;2.40;;;12.10;99.90;;;;;;4989282;28;20238;-79
2023/09/15 01:33:36;;;;;;;6.15;2.30;;;12.10;99.90;;;;;;4988269;28;20042;-80
2023/09/15 01:36:01;;;;;;;5.05;2.17;;;12.10;99.90;;;;;;4990035;28;20050;-80
2023/09/15 01:38:27;;;;;;;4.65;2.45;;;12.10;99.90;;;;;;4978428;28;20053;-80
2023/09/15 01:40:52;;;;;;;4.05;2.40;;;12.10;99.90;;;;;;4991547;28;20046;-79
2023/09/15 01:43:18;;;;;;;5.35;2.20;;;12.00;99.90;;;;;;4974773;28;20494;-79
2023/09/15 01:45:43;;;;;;;5.22;2.13;;;12.00;99.90;;;;;;4990398;28;20053;-80
2023/09/15 01:48:10;;;;;;;6.07;2.20;;;12.00;99.90;;;;;;4990780;28;20038;-80
2023/09/15 01:50:36;;;;;;;6.15;2.40;;;11.90;99.90;;;;;;4985554;28;20124;-80
2023/09/15 01:53:03;;;;;;;5.38;2.35;;;11.90;99.90;;;;;;4990389;28;20409;-79
2023/09/15 01:55:31;;;;;;;5.28;2.35;;;11.90;99.90;;;;;;4975900;28;20034;-79
2023/09/15 01:57:57;;;;;;;3.85;2.67;;;11.80;99.90;;;;;;4991426;28;20046;-79
2023/09/15 02:00:22;;;;;;;7.22;2.88;;;11.80;99.90;;;;;;4991287;28;20044;-79
2023/09/15 02:02:48;;;;;;;6.55;2.67;;;11.80;99.90;;;;;;4991104;28;20038;-79
2023/09/15 02:05:24;;;;;;;7.25;2.50;;;11.80;99.90;;;;;;4974898;28;20133;-80
2023/09/15 02:07:50;;;;;;;4.88;2.88;;;11.80;99.90;;;;;;4991371;28;20120;-79
2023/09/15 02:10:15;;;;;;;4.72;2.60;;;11.80;99.90;;;;;;4992016;28;20050;-80
2023/09/15 02:12:41;;;;;;;5.15;2.30;;;11.70;99.90;;;;;;4974879;28;20152;-79
2023/09/15 02:15:07;;;;;;;5.60;2.50;;;11.70;99.90;;;;;;4978420;28;20049;-79
2023/09/15 02:17:32;;;;;;;4.75;2.63;;;11.70;99.90;;;;;;4985453;28;20034;-79
2023/09/15 02:19:58;;;;;;;5.22;2.63;;;11.70;99.90;;;;;;4990663;28;20042;-80
2023/09/15 02:22:23;;;;;;;4.32;2.42;;;11.70;99.90;;;;;;4984848;28;20039;-80
2023/09/15 02:24:49;;;;;;;4.78;2.30;;;11.60;99.90;;;;;;4991560;28;20048;-80
2023/09/15 02:27:14;;;;;;;4.90;2.70;;;11.60;99.90;;;;;;4989675;28;20490;-79
2023/09/15 02:29:40;;;;;;;5.53;2.50;;;11.60;99.90;;;;;;4990877;28;20041;-79
2023/09/15 02:32:05;;;;;;;4.32;2.58;;;11.50;99.90;;;;;;4986170;28;20049;-80
2023/09/15 02:34:31;;;;;;;6.35;2.90;;;11.50;99.90;;;;;;4990333;28;20034;-79
2023/09/15 02:36:56;;;;;;;8.38;3.10;;;11.50;99.90;;;;;;4990185;28;20065;-79
2023/09/15 02:39:22;;;;;;;5.15;2.50;;;11.50;99.90;;;;;;4990474;28;20386;-79
2023/09/15 02:41:47;;;;;;;5.95;3.15;;;11.50;99.90;;;;;;4989915;28;20042;-79
2023/09/15 02:44:13;;;;;;;5.80;2.50;;;11.50;99.90;;;;;;4990468;28;20042;-80
2023/09/15 02:46:39;;;;;;;5.95;2.55;;;11.50;99.90;;;;;;4973789;28;20043;-79
2023/09/15 02:49:04;;;;;;;5.75;3.00;;;11.50;99.90;;;;;;4989472;28;20042;-79
2023/09/15 02:51:30;;;;;;;6.70;2.90;;;11.40;99.90;;;;;;4975071;28;20482;-79
2023/09/15 02:53:55;;;;;;;6.72;2.67;;;11.40;99.90;;;;;;4988766;28;20065;-80
2023/09/15 02:56:23;;;;;;;3.83;2.67;;;11.40;99.90;;;;;;4990334;28;20474;-79
2023/09/15 02:58:49;;;;;;;6.25;2.40;;;11.40;99.90;;;;;;4989773;28;20117;-79
2023/09/15 03:01:15;;;;;;;5.32;2.50;;;11.30;99.90;;;;;;4989646;28;20200;-80
2023/09/15 03:03:41;;;;;;;5.25;2.50;;;11.30;99.90;;;;;;4990344;28;20042;-79
2023/09/15 03:06:09;;;;;;;5.65;2.55;;;11.30;99.90;;;;;;4989751;28;20057;-79
2023/09/15 03:08:35;;;;;;;6.05;2.47;;;11.30;99.90;;;;;;4989255;28;20037;-79
2023/09/15 03:11:01;;;;;;;7.57;2.60;;;11.20;99.90;;;;;;4989616;28;20137;-80
2023/09/15 03:13:27;;;;;;;6.15;2.50;;;11.30;99.90;;;;;;4988933;28;20621;-80
2023/09/15 03:15:52;;;;;;;5.28;2.70;;;11.20;99.90;;;;;;4989429;28;20470;-79
2023/09/15 03:18:18;;;;;;;6.60;2.95;;;11.20;99.90;;;;;;4989356;28;20050;-80
2023/09/15 03:20:43;;;;;;;6.50;2.67;;;11.20;99.90;;;;;;4990594;28;20046;-80
2023/09/15 03:23:09;;;;;;;7.65;2.60;;;11.10;99.90;;;;;;4989933;28;20085;-79
2023/09/15 03:25:34;;;;;;;3.75;2.20;;;11.10;99.90;;;;;;4987639;28;20042;-80
2023/09/15 03:28:00;;;;;;;6.45;2.92;;;11.10;99.90;;;;;;4989090;28;20038;-80
2023/09/15 03:30:26;;;;;;;5.82;2.90;;;11.10;99.90;;;;;;4988833;28;20049;-80
2023/09/15 03:32:52;;;;;;;4.95;2.80;;;11.10;99.90;;;;;;4993361;28;20033;-80
2023/09/15 03:35:18;;;;;;;5.35;2.58;;;11.00;99.90;;;;;;4988999;28;20044;-79
2023/09/15 03:37:44;;;;;;;5.63;2.83;;;11.00;99.90;;;;;;4973526;28;20137;-80
2023/09/15 03:40:11;;;;;;;5.30;2.70;;;11.00;99.90;;;;;;4990023;28;20089;-80
2023/09/15 03:42:37;;;;;;;5.88;2.85;;;11.00;99.90;;;;;;4972760;28;20062;-79
2023/09/15 03:45:05;;;;;;;4.85;2.92;;;11.00;99.90;;;;;;4988790;28;20145;-80
2023/09/15 03:47:31;;;;;;;5.68;3.00;;;10.90;99.90;;;;;;4988099;28;20044;-79
2023/09/15 03:49:56;;;;;;;7.15;3.13;;;10.90;99.90;;;;;;4989179;28;20482;-79
2023/09/15 03:52:22;;;;;;;6.10;3.42;;;10.90;99.90;;;;;;4988642;28;20618;-80
2023/09/15 03:54:47;;;;;;;6.13;3.08;;;10.90;99.90;;;;;;4989924;28;20084;-80
2023/09/15 03:57:13;;;;;;;5.78;2.97;;;10.90;99.90;;;;;;4989622;28;20151;-80
2023/09/15 03:59:38;;;;;;;4.28;2.35;;;10.80;99.90;;;;;;4981941;28;20124;-80
2023/09/15 04:02:04;;;;;;;5.57;2.92;;;10.80;99.90;;;;;;4988766;28;20096;-79
2023/09/15 04:04:30;;;;;;;5.53;2.50;;;10.80;99.90;;;;;;4989409;28;20499;-78
2023/09/15 04:06:55;;;;;;;6.03;2.80;;;10.80;99.90;;;;;;4972129;28;20038;-79
2023/09/15 04:09:24;;;;;;;6.28;2.70;;;10.80;99.90;;;;;;4988220;28;20038;-79
2023/09/15 04:11:51;;;;;;;3.65;2.60;;;10.80;99.90;;;;;;4972398;28;20034;-79
2023/09/15 04:14:16;;;;;;;4.80;2.75;;;10.70;99.90;;;;;;4988207;28;20096;-79
2023/09/15 04:16:42;;;;;;;5.30;2.67;;;10.70;99.90;;;;;;4996106;28;20461;-79
2023/09/15 04:19:08;;;;;;;4.85;2.63;;;10.70;99.90;;;;;;4989431;28;20041;-80
2023/09/15 04:21:34;;;;;;;6.05;2.70;;;10.70;99.90;;;;;;4989031;28;20054;-80
2023/09/15 04:23:59;;;;;;;4.63;3.00;;;10.70;99.90;;;;;;4987590;28;20072;-80
2023/09/15 04:26:26;;;;;;;4.85;2.92;;;10.70;99.90;;;;;;4987171;28;20061;-80
2023/09/15 04:28:51;;;;;;;5.57;2.80;;;10.70;99.90;;;;;;4989416;28;20034;-80
2023/09/15 04:31:17;;;;;;;7.30;3.00;;;10.70;99.90;;;;;;4989836;28;20030;-79
2023/09/15 04:33:43;;;;;;;6.95;3.00;;;10.70;99.90;;;;;;4969084;28;20088;-80
2023/09/15 04:36:09;;;;;;;6.57;3.15;;;10.60;99.90;;;;;;4985696;28;20079;-80
2023/09/15 04:38:35;;;;;;;5.88;2.97;;;10.70;99.90;;;;;;4989669;28;20042;-80
2023/09/15 04:41:00;;;;;;;5.32;2.95;;;10.60;99.90;;;;;;4988755;28;20038;-80
2023/09/15 04:43:26;;;;;;;5.40;3.47;;;10.60;99.90;;;;;;4988341;28;20046;-80
2023/09/15 04:45:51;;;;;;;4.22;3.22;;;10.60;99.90;;;;;;4988660;28;20089;-79
2023/09/15 04:48:17;;;;;;;5.40;3.25;;;10.60;99.90;;;;;;4976345;28;20038;-79
2023/09/15 04:50:42;;;;;;;5.10;3.00;;;10.60;99.90;;;;;;4989737;28;20520;-79
2023/09/15 04:53:08;;;;;;;5.65;3.53;;;10.60;99.90;;;;;;4991249;28;20038;-79
2023/09/15 04:55:34;;;;;;;6.25;3.40;;;10.60;99.90;;;;;;4991914;28;20569;-80
2023/09/15 04:57:59;;;;;;;6.57;3.50;;;10.50;99.90;;;;;;4993153;28;20122;-79
2023/09/15 05:00:26;;;;;;;6.97;3.30;;;10.50;99.90;;;;;;4990046;28;20042;-81
2023/09/15 05:02:52;;;;;;;5.68;3.45;;;10.50;99.90;;;;;;4988745;28;20034;-80
2023/09/15 05:05:17;;;;;;;6.10;3.40;;;10.50;99.90;;;;;;4989796;28;20409;-79
2023/09/15 05:07:43;;;;;;;8.60;3.85;;;10.50;99.90;;;;;;4989746;28;20046;-79
2023/09/15 05:10:09;;;;;;;7.78;4.20;;;10.50;99.90;;;;;;4986806;28;20045;-79
2023/09/15 05:12:34;;;;;;;6.07;3.65;;;10.50;99.90;;;;;;4983466;28;20069;-80
2023/09/15 05:15:02;;;;;;;7.03;3.30;;;10.50;99.90;;;;;;4988549;28;20433;-80
2023/09/15 05:17:28;;;;;;;7.57;3.65;;;10.50;99.90;;;;;;4991168;28;20042;-79
2023/09/15 05:19:56;;;;;;;4.90;3.28;;;10.50;99.90;;;;;;4987958;28;20473;-80
2023/09/15 05:22:21;;;;;;;4.70;3.22;;;10.50;99.90;;;;;;4980912;28;20096;-80
2023/09/15 05:24:47;;;;;;;6.75;3.85;;;10.50;99.90;;;;;;4985335;28;20038;-79
2023/09/15 05:27:12;;;;;;;7.80;4.38;;;10.50;99.90;;;;;;4988904;28;20421;-79
2023/09/15 05:29:38;;;;;;;7.20;3.63;;;10.50;99.90;;;;;;4966617;28;20486;-80
2023/09/15 05:32:04;;;;;;;6.18;4.20;;;10.50;99.90;;;;;;4990302;28;20042;-79
2023/09/15 05:34:29;;;;;;;8.55;3.90;;;10.50;99.90;;;;;;4982864;28;20031;-79
2023/09/15 05:36:55;;;;;;;5.32;3.58;;;10.60;99.90;;;;;;4992232;28;20042;-80
2023/09/15 05:39:22;;;;;;;7.95;3.97;;;10.60;99.90;;;;;;4986848;28;20042;-79
2023/09/15 05:41:48;;;;;;;9.38;4.55;;;10.60;99.90;;;;;;4986909;28;20050;-80
2023/09/15 05:44:13;;;;;;;7.93;4.30;;;10.70;99.90;;;;;;4992343;28;20066;-80
2023/09/15 05:46:39;;;;;;;8.52;4.00;;;10.70;99.90;;;;;;4989480;28;20046;-79
2023/09/15 05:49:05;;;;;;;8.35;4.10;;;10.80;99.90;;;;;;4991130;28;20085;-79
2023/09/15 05:51:31;;;;;;;7.70;4.30;;;10.80;99.90;;;;;;4984225;28;20034;-79
2023/09/15 05:53:56;;;;;;;8.55;4.20;;;10.90;99.90;;;;;;4987037;28;20038;-81
2023/09/15 05:56:22;;;;;;;6.57;4.03;;;10.90;99.90;;;;;;4972608;28;20042;-79
2023/09/15 05:58:47;;;;;;;5.53;4.10;;;11.00;99.90;;;;;;4974952;28;20100;-81
2023/09/15 06:01:13;;;;;;;5.35;4.00;;;11.00;99.90;;;;;;4986113;28;20529;-80
2023/09/15 06:03:38;;;;;;;8.57;4.85;;;11.00;99.90;;;;;;4990739;28;20081;-79
2023/09/15 06:06:04;;;;;;;7.03;4.65;;;11.10;99.90;;;;;;4991350;28;20050;-78
2023/09/15 06:08:29;;;;;;;7.57;4.65;;;11.10;99.90;;;;;;4990606;28;20104;-80
2023/09/15 06:10:55;;;;;;;5.63;4.32;;;11.10;99.90;;;;;;4988919;28;20042;-75
2023/09/15 06:13:21;;;;;;;6.85;4.72;;;11.20;99.90;;;;;;4991856;28;20095;-79
2023/09/15 06:15:46;;;;;;;8.40;4.55;;;11.20;99.90;;;;;;4988338;28;20042;-77
2023/09/15 06:18:13;;;;;;;5.55;3.90;;;11.20;99.90;;;;;;4990563;28;20165;-77
2023/09/15 06:20:38;;;;;;;6.68;4.25;;;11.30;99.90;;;;;;4991649;28;20049;-77
2023/09/15 06:23:04;;;;;;;7.18;5.10;;;11.30;99.90;;;;;;4988840;28;20038;-78
2023/09/15 06:25:32;;;;;;;7.97;4.28;;;11.40;99.90;;;;;;4988743;28;20050;-77
2023/09/15 06:27:59;;;;;;;6.88;4.18;;;11.40;99.90;;;;;;4991533;28;20057;-77
2023/09/15 06:30:26;;;;;;;11.82;4.20;;;11.50;99.90;;;;;;4991925;28;20074;-74
2023/09/15 06:32:52;;;;;;;6.07;4.18;;;11.50;99.90;;;;;;4988654;28;20046;-76
2023/09/15 06:35:18;;;;;;;6.60;4.50;;;11.60;99.90;;;;;;4987669;28;20047;-77
2023/09/15 06:37:44;;;;;;;6.15;4.30;;;11.70;99.90;;;;;;4975519;28;20042;-76
2023/09/15 06:40:10;;;;;;;8.85;4.93;;;11.70;99.90;;;;;;4972589;28;20046;-77
2023/09/15 06:42:36;;;;;;;7.03;4.72;;;11.80;99.90;;;;;;4988313;28;20193;-77
2023/09/15 06:45:03;;;;;;;7.57;4.80;;;11.80;99.90;;;;;;4989080;28;20125;-76
2023/09/15 06:47:29;;;;;;;6.97;4.50;;;11.90;99.90;;;;;;4989071;28;20150;-76
2023/09/15 06:49:55;;;;;;;9.05;4.63;;;12.00;99.90;;;;;;4989205;28;20106;-76
2023/09/15 06:52:20;;;;;;;9.25;4.55;;;12.10;99.90;;;;;;4971197;28;20114;-77
2023/09/15 06:54:46;;;;;;;8.43;4.50;;;12.20;99.90;;;;;;4989220;28;20046;-78
2023/09/15 06:57:11;;;;;;;9.38;4.78;;;12.30;99.90;;;;;;4986497;28;20125;-76
2023/09/15 06:59:37;;;;;;;7.78;4.68;;;12.40;99.90;;;;;;4989995;28;20585;-77
2023/09/15 07:02:02;;;;;;;7.55;5.35;;;12.60;99.90;;;;;;4986714;28;20052;-76
2023/09/15 07:04:29;;;;;;;9.02;5.00;;;12.70;99.90;;;;;;4984080;28;20035;-77
2023/09/15 07:06:54;;;;;;;8.38;4.63;;;12.80;99.90;;;;;;4988252;28;20080;-76
2023/09/15 07:09:20;;;;;;;6.03;4.70;;;13.00;99.90;;;;;;4990201;28;20062;-77
2023/09/15 07:11:46;;;;;;;8.40;4.50;;;13.10;99.90;;;;;;4989425;28;20097;-77
2023/09/15 07:14:11;;;;;;;8.10;4.80;;;13.30;99.90;;;;;;4974426;28;20080;-77
2023/09/15 07:16:37;;;;;;;8.18;4.70;;;13.50;99.90;;;;;;4988952;28;20069;-77
2023/09/15 07:19:02;;;;;;;6.22;4.35;;;13.60;99.90;;;;;;4991105;28;20583;-78
2023/09/15 07:21:28;;;;;;;7.88;4.78;;;13.80;99.90;;;;;;4989616;28;20034;-77
2023/09/15 07:23:55;;;;;;;6.97;4.75;;;13.90;99.90;;;;;;4974038;28;20100;-76
2023/09/15 07:26:21;;;;;;;6.93;4.30;;;14.00;99.90;;;;;;4988300;28;20166;-77
2023/09/15 07:28:47;;;;;;;8.05;4.10;;;14.20;99.90;;;;;;4988950;28;20445;-77
2023/09/15 07:31:15;;;;;;;8.15;4.20;;;14.30;99.90;;;;;;4986124;28;20038;-77
2023/09/15 07:33:43;;;;;;;8.35;4.50;;;14.40;99.90;;;;;;4972589;28;20038;-77
2023/09/15 07:36:09;;;;;;;10.45;4.72;;;14.50;99.90;;;;;;4989741;28;20050;-75
2023/09/15 07:38:35;;;;;;;8.02;4.25;;;14.70;99.90;;;;;;4988939;28;20050;-75
2023/09/15 07:41:01;;;;;;;8.50;4.57;;;14.80;99.90;;;;;;4989390;28;20050;-75
2023/09/15 07:43:26;;;;;;;8.25;4.07;;;14.90;99.90;;;;;;4973685;28;20050;-75
2023/09/15 07:45:52;;;;;;;9.23;4.25;;;15.00;99.90;;;;;;4988645;28;20100;-76
2023/09/15 07:48:17;;;;;;;9.52;4.53;;;15.10;99.90;;;;;;4986932;28;20031;-75
2023/09/15 07:50:43;;;;;;;6.25;3.80;;;15.30;99.90;;;;;;4989806;28;20129;-75
2023/09/15 07:53:09;;;;;;;7.05;3.97;;;15.40;99.90;;;;;;4985290;28;20214;-75
2023/09/15 07:55:35;;;;;;;9.80;4.05;;;15.50;99.90;;;;;;4992454;28;20511;-75
2023/09/15 07:58:01;;;;;;;7.57;4.35;;;15.60;99.90;;;;;;4989310;28;20053;-76
2023/09/15 08:00:26;;;;;;;7.22;4.20;;;15.60;99.90;;;;;;4988875;28;20045;-75
2023/09/15 08:02:52;;;;;;;4.97;3.30;;;15.80;99.90;;;;;;4987706;28;20137;-74
2023/09/15 08:05:17;;;;;;;9.00;3.95;;;15.90;99.90;;;;;;4989760;28;20046;-78
2023/09/15 08:07:47;;;;;;;8.20;4.10;;;16.00;99.90;;;;;;4989786;28;20074;-78
2023/09/15 08:10:13;;;;;;;6.82;3.53;;;16.10;99.90;;;;;;4986848;28;20038;-75
2023/09/15 08:12:39;;;;;;;6.70;3.90;;;16.20;99.90;;;;;;4988408;28;20093;-75
2023/09/15 08:15:05;;;;;;;7.75;3.80;;;16.30;99.90;;;;;;4988925;28;20030;-75
2023/09/15 08:17:31;;;;;;;8.18;3.42;;;16.40;99.90;;;;;;4989627;28;20117;-76
2023/09/15 08:19:57;;;;;;;5.82;3.35;;;16.50;99.90;;;;;;4989107;28;20165;-76
2023/09/15 08:22:25;;;;;;;8.15;3.55;;;16.60;99.90;;;;;;4991462;28;20188;-76
2023/09/15 08:24:51;;;;;;;6.28;3.40;;;16.60;99.90;;;;;;4992562;28;20066;-76
2023/09/15 08:27:16;;;;;;;5.40;2.95;;;16.70;99.90;;;;;;4992264;28;20073;-76
2023/09/15 08:29:42;;;;;;;5.68;2.90;;;16.80;99.90;;;;;;4972897;28;20030;-76
2023/09/15 08:32:09;;;;;;;7.05;3.15;;;16.90;99.90;;;;;;4991735;28;20410;-76
2023/09/15 08:34:34;;;;;;;7.03;3.40;;;17.00;99.90;;;;;;4992194;28;20030;-76
2023/09/15 08:37:00;;;;;;;6.63;3.40;;;17.00;99.90;;;;;;4992768;28;20100;-76
2023/09/15 08:39:25;;;;;;;6.65;2.88;;;17.10;99.90;;;;;;4990189;28;20054;-76
2023/09/15 08:41:56;;;;;;;7.38;3.28;;;17.10;99.90;;;;;;4990691;28;20076;-75
2023/09/15 08:44:24;;;;;;;7.38;3.00;;;17.20;99.90;;;;;;5006979;28;20066;-75
2023/09/15 08:46:50;;;;;;;5.35;2.75;;;17.30;99.90;;;;;;4991864;28;20077;-76
2023/09/15 08:49:16;;;;;;;5.70;2.95;;;17.20;99.90;;;;;;4991100;28;20077;-76
2023/09/15 08:51:43;;;;;;;6.57;2.67;;;17.30;99.90;;;;;;4975320;28;20046;-76
2023/09/15 08:54:09;;;;;;;6.28;2.97;;;17.40;99.90;;;;;;4990349;28;20534;-75
2023/09/15 08:56:35;;;;;;;7.20;3.00;;;17.40;99.90;;;;;;4990936;28;20559;-76
2023/09/15 08:59:03;;;;;;;5.20;2.80;;;17.50;99.90;;;;;;4983991;28;20074;-77
2023/09/15 09:01:29;;;;;;;5.32;2.60;;;17.50;99.90;;;;;;4989252;28;20096;-76
2023/09/15 09:03:55;;;;;;;8.93;2.88;;;17.60;99.90;;;;;;4992285;28;20050;-75
2023/09/15 09:06:23;;;;;;;5.25;3.00;;;17.70;99.90;;;;;;4985921;28;20461;-76
2023/09/15 09:08:48;;;;;;;6.28;2.88;;;17.80;99.90;;;;;;4988759;28;20095;-76
2023/09/15 09:11:14;;;;;;;8.77;2.88;;;17.80;99.90;;;;;;4977142;28;20448;-76
2023/09/15 09:13:40;;;;;;;10.27;3.10;;;17.90;99.90;;;;;;4964827;28;20054;-76
2023/09/15 09:16:07;;;;;;;7.03;2.70;;;17.80;99.90;;;;;;4975810;28;20050;-76
2023/09/15 09:18:34;;;;;;;7.47;2.65;;;17.80;99.90;;;;;;4984637;28;20042;-76
2023/09/15 09:21:02;;;;;;;5.38;2.70;;;17.80;99.90;;;;;;4984219;28;20053;-76
2023/09/15 09:23:28;;;;;;;6.10;2.53;;;17.80;99.90;;;;;;5004412;28;20085;-77
2023/09/15 09:25:53;;;;;;;7.20;2.85;;;17.90;99.90;;;;;;4990633;28;20214;-76
2023/09/15 09:28:20;;;;;;;7.53;2.65;;;17.90;99.90;;;;;;4990476;28;20042;-77
2023/09/15 09:30:46;;;;;;;9.38;3.35;;;17.90;99.90;;;;;;4991193;28;20054;-76
2023/09/15 09:33:12;;;;;;;5.70;2.80;;;17.90;99.90;;;;;;4991304;28;20046;-76
2023/09/15 09:35:38;;;;;;;7.95;2.95;;;17.90;99.90;;;;;;4983409;28;20418;-76
2023/09/15 09:38:04;;;;;;;4.93;2.58;;;17.90;99.90;;;;;;4985960;28;20050;-75
2023/09/15 09:40:31;;;;;;;7.13;2.92;;;17.90;99.90;;;;;;5007489;28;20042;-76
2023/09/15 09:42:56;;;;;;;7.93;2.47;;;17.90;99.90;;;;;;4973623;28;20100;-77
2023/09/15 09:45:27;;;;;;;5.47;2.17;;;18.00;99.90;;;;;;4989833;28;20470;-76
2023/09/15 09:47:55;;;;;;;7.57;2.65;;;18.10;99.90;;;;;;4991255;28;20092;-76
2023/09/15 09:50:21;;;;;;;8.13;2.78;;;18.20;99.90;;;;;;4991211;28;20070;-76
2023/09/15 09:52:48;;;;;;;4.75;2.47;;;18.30;99.90;;;;;;4988255;28;20125;-76
2023/09/15 09:55:14;;;;;;;5.78;2.42;;;18.40;99.90;;;;;;5004153;28;20038;-76
2023/09/15 09:57:40;;;;;;;8.05;2.80;;;18.40;99.90;;;;;;4985385;28;20069;-76
2023/09/15 10:00:09;;;;;;;6.43;2.78;;;18.50;99.90;;;;;;4974740;28;20038;-75
2023/09/15 10:02:42;;;;;;;6.50;3.10;;;18.50;99.90;;;;;;4986378;28;20505;-77
2023/09/15 10:05:08;;;;;;;5.53;3.13;;;18.60;99.90;;;;;;4991584;28;20046;-76
2023/09/15 10:07:34;;;;;;;8.75;2.78;;;18.70;99.90;;;;;;4970230;28;20042;-75
2023/09/15 10:10:02;;;;;;;8.52;3.80;;;18.70;99.90;;;;;;4989377;28;20043;-76
2023/09/15 10:12:28;;;;;;;5.10;3.33;;;18.70;99.90;;;;;;4983286;28;20042;-76
2023/09/15 10:14:55;;;;;;;6.75;3.58;;;18.80;99.90;;;;;;4984527;28;20046;-76
2023/09/15 10:17:22;;;;;;;5.28;3.50;;;18.90;99.90;;;;;;4990032;28;20057;-77
2023/09/15 10:19:48;;;;;;;8.43;3.80;;;18.90;99.90;;;;;;4990173;28;20513;-77
2023/09/15 10:22:15;;;;;;;6.78;3.50;;;18.90;99.90;;;;;;4984303;28;20042;-77
2023/09/15 10:24:47;;;;;;;7.68;3.88;;;19.00;99.90;;;;;;4991443;28;20358;-77
2023/09/15 10:27:13;;;;;;;8.15;3.45;;;19.10;99.90;;;;;;4985048;28;20052;-77
2023/09/15 10:29:39;;;;;;;6.60;3.00;;;19.10;99.90;;;;;;4991490;28;20093;-78
2023/09/15 10:32:05;;;;;;;5.60;2.70;;;19.10;99.90;;;;;;4991373;28;20038;-77
2023/09/15 10:34:32;;;;;;;6.78;3.05;;;19.20;99.90;;;;;;4989653;28;20034;-78
2023/09/15 10:37:02;;;;;;;7.47;2.60;;;19.20;99.90;;;;;;4990330;28;20066;-79
2023/09/15 10:39:36;;;;;;;5.55;3.05;;;19.30;99.90;;;;;;4991076;28;20447;-78
2023/09/15 10:42:06;;;;;;;8.25;2.95;;;19.40;99.90;;;;;;4991137;28;20085;-78
2023/09/15 10:44:32;;;;;;;5.47;2.67;;;19.50;99.90;;;;;;4990472;28;20410;-77
2023/09/15 10:46:59;;;;;;;5.78;2.60;;;19.50;99.90;;;;;;4985940;28;20533;-78
2023/09/15 10:49:25;;;;;;;6.45;2.58;;;19.60;99.90;;;;;;4990721;28;20502;-77
2023/09/15 10:51:56;;;;;;;5.75;2.90;;;19.70;99.90;;;;;;4991161;28;20081;-77
2023/09/15 10:54:25;;;;;;;6.43;3.03;;;19.80;99.90;;;;;;4991042;28;20109;-77
2023/09/15 10:56:51;;;;;;;7.03;2.83;;;19.90;99.90;;;;;;4990730;28;20042;-76
2023/09/15 10:59:17;;;;;;;7.07;3.10;;;20.00;99.90;;;;;;4990473;28;20073;-77
2023/09/15 11:01:44;;;;;;;7.10;2.90;;;20.10;99.90;;;;;;4991017;28;20086;-77
2023/09/15 11:04:20;;;;;;;7.25;3.20;;;20.20;99.90;;;;;;4990789;28;20121;-79
2023/09/15 11:06:48;;;;;;;5.50;2.55;;;20.30;99.90;;;;;;4990101;28;20046;-77
2023/09/15 11:09:14;;;;;;;5.68;2.80;;;20.40;99.90;;;;;;4990455;28;20097;-77
2023/09/15 11:11:45;;;;;;;8.57;2.63;;;20.40;99.90;;;;;;4987881;28;20060;-77
2023/09/15 11:14:21;;;;;;;6.60;2.75;;;20.30;99.90;;;;;;4981593;28;20379;-76
2023/09/15 11:16:49;;;;;;;5.97;2.70;;;20.40;99.90;;;;;;5000926;28;20050;-76
2023/09/15 11:19:17;;;;;;;6.88;2.80;;;20.50;99.90;;;;;;4989353;28;20089;-77
2023/09/15 11:21:43;;;;;;;7.35;2.72;;;20.60;99.90;;;;;;4988848;28;20121;-77
2023/09/15 11:24:09;;;;;;;6.00;2.80;;;20.70;99.90;;;;;;4988471;28;20042;-78
2023/09/15 11:26:36;;;;;;;8.60;2.55;;;20.80;99.90;;;;;;4987004;28;20038;-78
2023/09/15 11:29:06;;;;;;;4.63;2.50;;;20.90;99.90;;;;;;4992333;28;20044;-77
2023/09/15 11:31:35;;;;;;;5.80;2.50;;;21.10;99.90;;;;;;4991335;28;20379;-77
2023/09/15 11:34:00;;;;;;;4.85;2.38;;;21.20;99.90;;;;;;4994746;28;20045;-77
2023/09/15 11:36:27;;;;;;;7.45;2.58;;;21.40;99.90;;;;;;4973516;28;20133;-77
2023/09/15 11:38:55;;;;;;;5.90;2.20;;;21.50;99.90;;;;;;4990324;28;20259;-77
2023/09/15 11:41:28;;;;;;;6.43;2.10;;;21.70;99.90;;;;;;4988780;28;20073;-75
2023/09/15 11:43:55;;;;;;;4.57;2.17;;;21.80;99.90;;;;;;4998529;28;20062;-77
2023/09/15 11:46:21;;;;;;;5.90;2.33;;;21.80;99.90;;;;;;4991634;28;20038;-77
2023/09/15 11:48:48;;;;;;;4.72;2.30;;;22.00;99.90;;;;;;4990110;28;20092;-77
2023/09/15 11:51:14;;;;;;;4.28;2.50;;;22.10;99.90;;;;;;4989969;28;20152;-77
2023/09/15 11:53:41;;;;;;;5.88;2.08;;;22.20;99.90;;;;;;4989205;28;20034;-75
2023/09/15 11:56:08;;;;;;;6.35;2.20;;;22.20;99.90;;;;;;4992081;28;20104;-76
2023/09/15 11:58:34;;;;;;;6.07;2.63;;;22.10;99.90;;;;;;4991831;28;20201;-76
2023/09/15 12:01:01;;;;;;;10.52;6.97;;;22.10;99.90;;;;;;4977422;28;20117;-75
2023/09/15 12:03:29;;;;;;;5.78;3.55;;;22.00;99.90;;;;;;4985513;28;20441;-77
2023/09/15 12:05:55;;;;;;;8.85;5.25;;;22.10;99.90;;;;;;4992465;28;20046;-76
2023/09/15 12:08:21;;;;;;;5.72;2.78;;;22.10;99.90;;;;;;4987649;28;20401;-77
2023/09/15 12:10:47;;;;;;;3.72;2.17;;;22.10;99.90;;;;;;4980466;28;20097;-76
2023/09/15 12:13:12;;;;;;;4.63;2.13;;;22.20;99.90;;;;;;4986857;28;20039;-75
2023/09/15 12:15:38;;;;;;;7.68;2.80;;;22.30;99.90;;;;;;4992124;28;20490;-75
2023/09/15 12:18:05;;;;;;;5.97;2.60;;;22.40;99.90;;;;;;4972560;28;20073;-76
2023/09/15 12:20:34;;;;;;;6.38;2.30;;;22.40;99.90;;;;;;4985278;28;20420;-76
2023/09/15 12:23:09;;;;;;;6.32;2.50;;;22.60;99.90;;;;;;4991953;28;20034;-76
2023/09/15 12:25:34;;;;;;;7.82;3.13;;;22.80;99.90;;;;;;4992336;28;20041;-76
2023/09/15 12:28:00;;;;;;;4.72;2.30;;;22.90;99.90;;;;;;4992793;28;20486;-75
2023/09/15 12:30:25;;;;;;;6.13;2.67;;;22.80;99.90;;;;;;4987873;28;20034;-76
2023/09/15 12:32:53;;;;;;;5.78;2.53;;;23.00;99.90;;;;;;4988905;28;20066;-77
2023/09/15 12:35:20;;;;;;;5.53;2.22;;;23.10;99.90;;;;;;4990080;28;20038;-76
2023/09/15 12:37:46;;;;;;;4.57;2.00;;;23.10;99.90;;;;;;4986496;28;20054;-76
2023/09/15 12:40:13;;;;;;;5.22;2.08;;;23.20;99.90;;;;;;4991954;28;20042;-77
2023/09/15 12:42:39;;;;;;;5.95;2.00;;;23.30;99.90;;;;;;4991042;28;20085;-76